PBD587 ULLI-UMKK
Flight info
| Callsign | PBD587 |
|---|---|
| Flight time | 1h 37m |
| Altitude | 34000 |
| Route | N0450F340 UTETA M60 ATLUM T561 LEDUN DCT ARANS DCT PIDIN DCT PISIM DCT PIRUX DCT PIVAX DCT GARSO DCT AGONA N5 TURIP |
| Aircraft | B738/M-VGDW/C |
Departure
| Time | 2026-05-07 01:20 |
|---|---|
| Airport | Pulkovo Airport (ULLI) |
Arrival
| Time | 2026-05-07 02:57 |
|---|---|
| Airport | Khrabrovo Airport (UMKK) |
| Time | Latitude | Longitude | Altitude | Speed | Heading |
|---|---|---|---|---|---|
| 2026-05-07 00:52 | 59.80191 | 30.26530 | 88 ft | 0 kts | 287° |
| 2026-05-07 01:13 | 59.80193 | 30.26513 | 87 ft | 5 kts | 287° |
| 2026-05-07 01:13 | 59.80210 | 30.26425 | 87 ft | 8 kts | 314° |
| 2026-05-07 01:14 | 59.80267 | 30.26419 | 87 ft | 10 kts | 16° |
| 2026-05-07 01:14 | 59.80338 | 30.26450 | 87 ft | 11 kts | 4° |
| 2026-05-07 01:14 | 59.80421 | 30.26488 | 87 ft | 13 kts | 33° |
| 2026-05-07 01:14 | 59.80430 | 30.26656 | 87 ft | 14 kts | 107° |
| 2026-05-07 01:15 | 59.80399 | 30.26858 | 87 ft | 16 kts | 107° |
| 2026-05-07 01:15 | 59.80367 | 30.27078 | 87 ft | 18 kts | 107° |
| 2026-05-07 01:15 | 59.80330 | 30.27321 | 87 ft | 19 kts | 107° |
| 2026-05-07 01:15 | 59.80292 | 30.27579 | 87 ft | 20 kts | 107° |
| 2026-05-07 01:16 | 59.80251 | 30.27852 | 87 ft | 21 kts | 106° |
| 2026-05-07 01:16 | 59.80211 | 30.28120 | 87 ft | 20 kts | 106° |
| 2026-05-07 01:16 | 59.80172 | 30.28385 | 87 ft | 19 kts | 106° |
| 2026-05-07 01:16 | 59.80135 | 30.28632 | 87 ft | 18 kts | 106° |
| 2026-05-07 01:17 | 59.80101 | 30.28869 | 87 ft | 17 kts | 106° |
| 2026-05-07 01:17 | 59.80068 | 30.29090 | 87 ft | 16 kts | 107° |
| 2026-05-07 01:17 | 59.80036 | 30.29300 | 87 ft | 15 kts | 107° |
| 2026-05-07 01:17 | 59.80006 | 30.29499 | 87 ft | 15 kts | 107° |
| 2026-05-07 01:18 | 59.79977 | 30.29685 | 87 ft | 14 kts | 107° |
| 2026-05-07 01:18 | 59.79951 | 30.29864 | 87 ft | 14 kts | 106° |
| 2026-05-07 01:18 | 59.79958 | 30.30056 | 87 ft | 15 kts | 56° |
| 2026-05-07 01:18 | 59.80033 | 30.30211 | 87 ft | 16 kts | 45° |
| 2026-05-07 01:19 | 59.80122 | 30.30251 | 87 ft | 12 kts | 296° |
| 2026-05-07 01:19 | 59.80130 | 30.30212 | 87 ft | 9 kts | 289° |
| 2026-05-07 01:19 | 59.80203 | 30.29729 | 87 ft | 68 kts | 285° |
| 2026-05-07 01:19 | 59.80398 | 30.28415 | 87 ft | 128 kts | 287° |
| 2026-05-07 01:20 | 59.80694 | 30.26466 | 315 ft | 158 kts | 287° |
| 2026-05-07 01:20 | 59.81023 | 30.24290 | 936 ft | 166 kts | 287° |
| 2026-05-07 01:20 | 59.81350 | 30.22106 | 1721 ft | 165 kts | 287° |
| 2026-05-07 01:20 | 59.81667 | 30.19951 | 2516 ft | 162 kts | 287° |
| 2026-05-07 01:21 | 59.81984 | 30.17791 | 3167 ft | 167 kts | 287° |
| 2026-05-07 01:21 | 59.82323 | 30.15470 | 3646 ft | 186 kts | 288° |
| 2026-05-07 01:21 | 59.82709 | 30.12825 | 3952 ft | 213 kts | 288° |
| 2026-05-07 01:21 | 59.83147 | 30.09826 | 4236 ft | 239 kts | 288° |
| 2026-05-07 01:22 | 59.83636 | 30.06515 | 4709 ft | 259 kts | 287° |
| 2026-05-07 01:22 | 59.84152 | 30.02992 | 5348 ft | 271 kts | 287° |
| 2026-05-07 01:22 | 59.84590 | 29.99321 | 6180 ft | 275 kts | 277° |
| 2026-05-07 01:22 | 59.84602 | 29.95488 | 7023 ft | 279 kts | 264° |
| 2026-05-07 01:23 | 59.84303 | 29.91651 | 7853 ft | 282 kts | 258° |
| 2026-05-07 01:23 | 59.83865 | 29.87840 | 8682 ft | 285 kts | 255° |
| 2026-05-07 01:23 | 59.83375 | 29.83992 | 9486 ft | 288 kts | 255° |
| 2026-05-07 01:23 | 59.82891 | 29.80140 | 10390 ft | 287 kts | 256° |
| 2026-05-07 01:24 | 59.82410 | 29.76238 | 11050 ft | 296 kts | 255° |
| 2026-05-07 01:24 | 59.81911 | 29.72141 | 11457 ft | 314 kts | 255° |
| 2026-05-07 01:24 | 59.81388 | 29.67822 | 11876 ft | 329 kts | 255° |
| 2026-05-07 01:24 | 59.80856 | 29.63354 | 12525 ft | 335 kts | 256° |
| 2026-05-07 01:25 | 59.80372 | 29.58823 | 13376 ft | 335 kts | 257° |
| 2026-05-07 01:25 | 59.79879 | 29.54295 | 14161 ft | 336 kts | 256° |
| 2026-05-07 01:25 | 59.79357 | 29.49762 | 14942 ft | 337 kts | 255° |
| 2026-05-07 01:25 | 59.78818 | 29.45232 | 15707 ft | 338 kts | 255° |
| 2026-05-07 01:26 | 59.78270 | 29.40696 | 16443 ft | 339 kts | 254° |
| 2026-05-07 01:26 | 59.77722 | 29.36203 | 17154 ft | 340 kts | 254° |
| 2026-05-07 01:26 | 59.77164 | 29.31647 | 17865 ft | 341 kts | 253° |
| 2026-05-07 01:26 | 59.76601 | 29.27070 | 18530 ft | 342 kts | 253° |
| 2026-05-07 01:27 | 59.76033 | 29.22464 | 19136 ft | 345 kts | 253° |
| 2026-05-07 01:27 | 59.75459 | 29.17818 | 19742 ft | 348 kts | 253° |
| 2026-05-07 01:27 | 59.74881 | 29.13138 | 20318 ft | 351 kts | 253° |
| 2026-05-07 01:27 | 59.74300 | 29.08430 | 20880 ft | 354 kts | 254° |
| 2026-05-07 01:28 | 59.73855 | 29.03609 | 21447 ft | 358 kts | 260° |
| 2026-05-07 01:28 | 59.73693 | 28.98661 | 22010 ft | 362 kts | 265° |
| 2026-05-07 01:28 | 59.73719 | 28.93647 | 22525 ft | 365 kts | 268° |
| 2026-05-07 01:28 | 59.73824 | 28.88587 | 23035 ft | 368 kts | 269° |
| 2026-05-07 01:29 | 59.73945 | 28.83508 | 23561 ft | 370 kts | 269° |
| 2026-05-07 01:29 | 59.74066 | 28.78409 | 24054 ft | 371 kts | 269° |
| 2026-05-07 01:29 | 59.74186 | 28.73270 | 24502 ft | 374 kts | 269° |
| 2026-05-07 01:29 | 59.74306 | 28.68102 | 24927 ft | 377 kts | 269° |
| 2026-05-07 01:30 | 59.74425 | 28.62896 | 25363 ft | 379 kts | 269° |
| 2026-05-07 01:30 | 59.74541 | 28.57721 | 25772 ft | 382 kts | 269° |
| 2026-05-07 01:30 | 59.74659 | 28.52437 | 26166 ft | 384 kts | 268° |
| 2026-05-07 01:30 | 59.74775 | 28.47113 | 26519 ft | 388 kts | 268° |
| 2026-05-07 01:31 | 59.74891 | 28.41761 | 26898 ft | 390 kts | 268° |
| 2026-05-07 01:31 | 59.75007 | 28.36369 | 27261 ft | 393 kts | 268° |
| 2026-05-07 01:31 | 59.75145 | 28.30934 | 27578 ft | 397 kts | 270° |
| 2026-05-07 01:31 | 59.75365 | 28.25456 | 27942 ft | 399 kts | 270° |
| 2026-05-07 01:32 | 59.75553 | 28.19957 | 28251 ft | 401 kts | 269° |
| 2026-05-07 01:32 | 59.75690 | 28.14407 | 28571 ft | 403 kts | 268° |
| 2026-05-07 01:32 | 59.75799 | 28.08841 | 28886 ft | 405 kts | 268° |
| 2026-05-07 01:32 | 59.75902 | 28.03245 | 29187 ft | 407 kts | 268° |
| 2026-05-07 01:33 | 59.76000 | 27.97695 | 29559 ft | 407 kts | 268° |
| 2026-05-07 01:33 | 59.76098 | 27.92076 | 29956 ft | 407 kts | 268° |
| 2026-05-07 01:33 | 59.76194 | 27.86477 | 30357 ft | 406 kts | 267° |
| 2026-05-07 01:33 | 59.76289 | 27.80896 | 30841 ft | 403 kts | 268° |
| 2026-05-07 01:34 | 59.76383 | 27.75351 | 31283 ft | 401 kts | 268° |
| 2026-05-07 01:34 | 59.76566 | 27.69832 | 31680 ft | 402 kts | 272° |
| 2026-05-07 01:34 | 59.77024 | 27.64353 | 32060 ft | 404 kts | 277° |
| 2026-05-07 01:34 | 59.77680 | 27.58932 | 32468 ft | 404 kts | 279° |
| 2026-05-07 01:35 | 59.78406 | 27.53559 | 32879 ft | 402 kts | 279° |
| 2026-05-07 01:35 | 59.79138 | 27.48204 | 33263 ft | 400 kts | 279° |
| 2026-05-07 01:35 | 59.79863 | 27.42890 | 33629 ft | 399 kts | 279° |
| 2026-05-07 01:35 | 59.80589 | 27.37564 | 33944 ft | 398 kts | 279° |
| 2026-05-07 01:36 | 59.81315 | 27.32220 | 34008 ft | 402 kts | 279° |
| 2026-05-07 01:36 | 59.82761 | 27.21538 | 34012 ft | 401 kts | 279° |
| 2026-05-07 01:37 | 59.84203 | 27.10830 | 34014 ft | 401 kts | 279° |
| 2026-05-07 01:37 | 59.85645 | 27.00114 | 34014 ft | 402 kts | 280° |
| 2026-05-07 01:38 | 59.87178 | 26.89408 | 34014 ft | 402 kts | 280° |
| 2026-05-07 01:38 | 59.88651 | 26.78670 | 34020 ft | 402 kts | 279° |
| 2026-05-07 01:39 | 59.90153 | 26.67889 | 34022 ft | 404 kts | 280° |
| 2026-05-07 01:39 | 59.91614 | 26.57085 | 34027 ft | 404 kts | 279° |
| 2026-05-07 01:40 | 59.93021 | 26.46235 | 34028 ft | 404 kts | 279° |
| 2026-05-07 01:40 | 59.94414 | 26.35367 | 34029 ft | 405 kts | 279° |
| 2026-05-07 01:41 | 59.95803 | 26.24482 | 34030 ft | 405 kts | 279° |
| 2026-05-07 01:41 | 59.96441 | 26.13532 | 34033 ft | 394 kts | 257° |
| 2026-05-07 01:41 | 59.95658 | 26.08332 | 34036 ft | 392 kts | 246° |
| 2026-05-07 01:42 | 59.94676 | 26.03258 | 34031 ft | 392 kts | 250° |
| 2026-05-07 01:42 | 59.93234 | 25.92761 | 34034 ft | 393 kts | 253° |
| 2026-05-07 01:43 | 59.91918 | 25.82190 | 34034 ft | 393 kts | 254° |
| 2026-05-07 01:43 | 59.90623 | 25.71614 | 34035 ft | 393 kts | 254° |
| 2026-05-07 01:44 | 59.89333 | 25.61054 | 34035 ft | 392 kts | 254° |
| 2026-05-07 01:44 | 59.88043 | 25.50513 | 34035 ft | 392 kts | 254° |
| 2026-05-07 01:45 | 59.86757 | 25.40057 | 34035 ft | 391 kts | 254° |
| 2026-05-07 01:45 | 59.85527 | 25.29522 | 34034 ft | 390 kts | 255° |
| 2026-05-07 01:46 | 59.84295 | 25.19019 | 34035 ft | 390 kts | 254° |
| 2026-05-07 01:46 | 59.83024 | 25.08564 | 34034 ft | 389 kts | 254° |
| 2026-05-07 01:47 | 59.81805 | 24.98099 | 34033 ft | 388 kts | 254° |
| 2026-05-07 01:47 | 59.80511 | 24.87708 | 34033 ft | 387 kts | 253° |
| 2026-05-07 01:48 | 59.79413 | 24.79112 | 34033 ft | 386 kts | 253° |
| 2026-05-07 01:48 | 59.78081 | 24.68786 | 34032 ft | 386 kts | 253° |
| 2026-05-07 01:49 | 59.76749 | 24.58502 | 34031 ft | 385 kts | 253° |
| 2026-05-07 01:49 | 59.75418 | 24.48223 | 34030 ft | 384 kts | 253° |
| 2026-05-07 01:50 | 59.74012 | 24.38032 | 34030 ft | 382 kts | 251° |
| 2026-05-07 01:50 | 59.72433 | 24.27968 | 34029 ft | 382 kts | 251° |
| 2026-05-07 01:51 | 59.70860 | 24.17896 | 34031 ft | 382 kts | 251° |
| 2026-05-07 01:51 | 59.69293 | 24.07845 | 34031 ft | 381 kts | 251° |
| 2026-05-07 01:52 | 59.67727 | 23.97817 | 34030 ft | 381 kts | 251° |
| 2026-05-07 01:52 | 59.66156 | 23.87794 | 34030 ft | 381 kts | 251° |
| 2026-05-07 01:53 | 59.64610 | 23.77830 | 34030 ft | 382 kts | 252° |
| 2026-05-07 01:53 | 59.63183 | 23.67696 | 34030 ft | 383 kts | 252° |
| 2026-05-07 01:54 | 59.61619 | 23.57652 | 34030 ft | 383 kts | 251° |
| 2026-05-07 01:54 | 59.60013 | 23.47635 | 34030 ft | 383 kts | 250° |
| 2026-05-07 01:55 | 59.58397 | 23.37630 | 34030 ft | 383 kts | 250° |
| 2026-05-07 01:55 | 59.56777 | 23.27633 | 34030 ft | 383 kts | 250° |
| 2026-05-07 01:56 | 59.55137 | 23.17640 | 34028 ft | 383 kts | 248° |
| 2026-05-07 01:56 | 59.53025 | 23.08026 | 34029 ft | 382 kts | 243° |
| 2026-05-07 01:57 | 59.50689 | 22.98620 | 34028 ft | 382 kts | 243° |
| 2026-05-07 01:57 | 59.48367 | 22.89231 | 34028 ft | 382 kts | 243° |
| 2026-05-07 01:58 | 59.46050 | 22.79843 | 34027 ft | 381 kts | 243° |
| 2026-05-07 01:58 | 59.43738 | 22.70485 | 34025 ft | 381 kts | 243° |
| 2026-05-07 01:59 | 59.41423 | 22.61140 | 34025 ft | 381 kts | 243° |
| 2026-05-07 01:59 | 59.39154 | 22.51823 | 34025 ft | 381 kts | 244° |
| 2026-05-07 02:00 | 59.36911 | 22.42439 | 34026 ft | 380 kts | 243° |
| 2026-05-07 02:00 | 59.34630 | 22.33108 | 34026 ft | 380 kts | 243° |
| 2026-05-07 02:01 | 59.32326 | 22.23797 | 34026 ft | 379 kts | 243° |
| 2026-05-07 02:01 | 59.30013 | 22.14513 | 34025 ft | 379 kts | 243° |
| 2026-05-07 02:02 | 59.27691 | 22.05242 | 34025 ft | 379 kts | 243° |
| 2026-05-07 02:02 | 59.25359 | 21.95976 | 34025 ft | 380 kts | 243° |
| 2026-05-07 02:03 | 59.23017 | 21.86709 | 34028 ft | 381 kts | 243° |
| 2026-05-07 02:03 | 59.20665 | 21.77440 | 34027 ft | 381 kts | 243° |
| 2026-05-07 02:04 | 59.18344 | 21.68136 | 34027 ft | 382 kts | 243° |
| 2026-05-07 02:04 | 59.15997 | 21.58847 | 34028 ft | 382 kts | 243° |
| 2026-05-07 02:05 | 59.13603 | 21.49591 | 34029 ft | 382 kts | 242° |
| 2026-05-07 02:05 | 59.11195 | 21.40349 | 34025 ft | 384 kts | 242° |
| 2026-05-07 02:06 | 59.08792 | 21.31154 | 34020 ft | 383 kts | 242° |
| 2026-05-07 02:06 | 59.06321 | 21.21972 | 34013 ft | 384 kts | 236° |
| 2026-05-07 02:06 | 59.04532 | 21.18145 | 34022 ft | 387 kts | 220° |
| 2026-05-07 02:07 | 59.02202 | 21.15452 | 34023 ft | 393 kts | 207° |
| 2026-05-07 02:07 | 58.94454 | 21.09978 | 34015 ft | 396 kts | 203° |
| 2026-05-07 02:08 | 58.89226 | 21.06589 | 34014 ft | 396 kts | 203° |
| 2026-05-07 02:08 | 58.83982 | 21.03230 | 34017 ft | 397 kts | 202° |
| 2026-05-07 02:09 | 58.78724 | 20.99883 | 34018 ft | 398 kts | 202° |
| 2026-05-07 02:09 | 58.73453 | 20.96546 | 34017 ft | 399 kts | 202° |
| 2026-05-07 02:10 | 58.68188 | 20.93158 | 34016 ft | 399 kts | 203° |
| 2026-05-07 02:10 | 58.62946 | 20.89809 | 34014 ft | 399 kts | 202° |
| 2026-05-07 02:11 | 58.57665 | 20.86464 | 34013 ft | 400 kts | 202° |
| 2026-05-07 02:11 | 58.52376 | 20.83133 | 34011 ft | 400 kts | 202° |
| 2026-05-07 02:12 | 58.47083 | 20.79814 | 34010 ft | 401 kts | 202° |
| 2026-05-07 02:12 | 58.41778 | 20.76500 | 34008 ft | 401 kts | 202° |
| 2026-05-07 02:13 | 58.36479 | 20.73200 | 34006 ft | 401 kts | 202° |
| 2026-05-07 02:13 | 58.31126 | 20.69879 | 34005 ft | 402 kts | 202° |
| 2026-05-07 02:14 | 58.25847 | 20.66613 | 34003 ft | 402 kts | 202° |
| 2026-05-07 02:14 | 58.20513 | 20.63324 | 33997 ft | 403 kts | 202° |
| 2026-05-07 02:15 | 58.15184 | 20.60048 | 33994 ft | 403 kts | 202° |
| 2026-05-07 02:15 | 58.09845 | 20.56777 | 33993 ft | 404 kts | 202° |
| 2026-05-07 02:16 | 58.04503 | 20.53514 | 33993 ft | 404 kts | 202° |
| 2026-05-07 02:16 | 57.99157 | 20.50258 | 33992 ft | 404 kts | 202° |
| 2026-05-07 02:17 | 57.93800 | 20.47007 | 33991 ft | 405 kts | 202° |
| 2026-05-07 02:17 | 57.88438 | 20.43762 | 33991 ft | 404 kts | 202° |
| 2026-05-07 02:18 | 57.83080 | 20.40530 | 33990 ft | 404 kts | 202° |
| 2026-05-07 02:18 | 57.77720 | 20.37307 | 33990 ft | 404 kts | 202° |
| 2026-05-07 02:19 | 57.72360 | 20.34093 | 33989 ft | 404 kts | 201° |
| 2026-05-07 02:19 | 57.67037 | 20.30913 | 33987 ft | 404 kts | 201° |
| 2026-05-07 02:20 | 57.61669 | 20.27715 | 33984 ft | 404 kts | 201° |
| 2026-05-07 02:20 | 57.56315 | 20.24535 | 33984 ft | 404 kts | 202° |
| 2026-05-07 02:21 | 57.50963 | 20.21366 | 33983 ft | 404 kts | 201° |
| 2026-05-07 02:21 | 57.45615 | 20.18209 | 33981 ft | 403 kts | 201° |
| 2026-05-07 02:22 | 57.40270 | 20.15064 | 33980 ft | 402 kts | 201° |
| 2026-05-07 02:22 | 57.34928 | 20.11930 | 33978 ft | 403 kts | 201° |
| 2026-05-07 02:23 | 57.29593 | 20.08791 | 33970 ft | 402 kts | 202° |
| 2026-05-07 02:23 | 57.24267 | 20.05661 | 33969 ft | 402 kts | 201° |
| 2026-05-07 02:24 | 57.18934 | 20.02566 | 33968 ft | 401 kts | 201° |
| 2026-05-07 02:24 | 57.13608 | 19.99491 | 33967 ft | 401 kts | 201° |
| 2026-05-07 02:25 | 57.08294 | 19.96432 | 33966 ft | 400 kts | 201° |
| 2026-05-07 02:25 | 57.03001 | 19.93469 | 33964 ft | 402 kts | 198° |
| 2026-05-07 02:26 | 56.97345 | 19.92506 | 33964 ft | 412 kts | 184° |
| 2026-05-07 02:26 | 56.91652 | 19.93311 | 33961 ft | 415 kts | 180° |
| 2026-05-07 02:27 | 56.85928 | 19.94434 | 33958 ft | 413 kts | 180° |
| 2026-05-07 02:27 | 56.80256 | 19.95545 | 33956 ft | 406 kts | 180° |
| 2026-05-07 02:28 | 56.74680 | 19.96634 | 33955 ft | 402 kts | 180° |
| 2026-05-07 02:28 | 56.71894 | 19.97176 | 33794 ft | 403 kts | 180° |
| 2026-05-07 02:28 | 56.69124 | 19.97715 | 33506 ft | 397 kts | 180° |
| 2026-05-07 02:29 | 56.66394 | 19.98246 | 33079 ft | 392 kts | 181° |
| 2026-05-07 02:29 | 56.63690 | 19.98780 | 32652 ft | 389 kts | 181° |
| 2026-05-07 02:29 | 56.61008 | 19.99308 | 32230 ft | 386 kts | 181° |
| 2026-05-07 02:29 | 56.58346 | 19.99828 | 31813 ft | 383 kts | 181° |
| 2026-05-07 02:30 | 56.55705 | 20.00343 | 31401 ft | 380 kts | 181° |
| 2026-05-07 02:30 | 56.53087 | 20.00851 | 30995 ft | 377 kts | 181° |
| 2026-05-07 02:30 | 56.50483 | 20.01354 | 30590 ft | 374 kts | 181° |
| 2026-05-07 02:30 | 56.47902 | 20.01853 | 30189 ft | 371 kts | 182° |
| 2026-05-07 02:31 | 56.45345 | 20.02354 | 29797 ft | 369 kts | 182° |
| 2026-05-07 02:31 | 56.42801 | 20.02848 | 29406 ft | 366 kts | 182° |
| 2026-05-07 02:31 | 56.40275 | 20.03336 | 29013 ft | 364 kts | 182° |
| 2026-05-07 02:31 | 56.37773 | 20.03816 | 28622 ft | 361 kts | 182° |
| 2026-05-07 02:32 | 56.35285 | 20.04292 | 28233 ft | 358 kts | 182° |
| 2026-05-07 02:32 | 56.32808 | 20.04765 | 27844 ft | 356 kts | 181° |
| 2026-05-07 02:32 | 56.30352 | 20.05233 | 27458 ft | 353 kts | 181° |
| 2026-05-07 02:32 | 56.27915 | 20.05696 | 27074 ft | 351 kts | 181° |
| 2026-05-07 02:33 | 56.25522 | 20.06151 | 26695 ft | 349 kts | 181° |
| 2026-05-07 02:33 | 56.23117 | 20.06608 | 26313 ft | 346 kts | 181° |
| 2026-05-07 02:33 | 56.20727 | 20.07062 | 25931 ft | 344 kts | 181° |
| 2026-05-07 02:33 | 56.18353 | 20.07512 | 25551 ft | 342 kts | 181° |
| 2026-05-07 02:34 | 56.15990 | 20.08015 | 25170 ft | 342 kts | 178° |
| 2026-05-07 02:34 | 56.13654 | 20.08940 | 24794 ft | 345 kts | 171° |
| 2026-05-07 02:34 | 56.11365 | 20.10238 | 24418 ft | 346 kts | 168° |
| 2026-05-07 02:34 | 56.09101 | 20.11684 | 24040 ft | 345 kts | 167° |
| 2026-05-07 02:35 | 56.07611 | 20.12653 | 23791 ft | 343 kts | 167° |
| 2026-05-07 02:35 | 56.05367 | 20.14105 | 23415 ft | 341 kts | 167° |
| 2026-05-07 02:35 | 56.03139 | 20.15539 | 23041 ft | 340 kts | 167° |
| 2026-05-07 02:35 | 56.00917 | 20.16963 | 22667 ft | 338 kts | 167° |
| 2026-05-07 02:36 | 55.98712 | 20.18371 | 22295 ft | 336 kts | 167° |
| 2026-05-07 02:36 | 55.96514 | 20.19772 | 21926 ft | 334 kts | 167° |
| 2026-05-07 02:36 | 55.94324 | 20.21165 | 21557 ft | 333 kts | 167° |
| 2026-05-07 02:36 | 55.92150 | 20.22546 | 21191 ft | 331 kts | 167° |
| 2026-05-07 02:37 | 55.89982 | 20.23920 | 20823 ft | 330 kts | 167° |
| 2026-05-07 02:37 | 55.87823 | 20.25287 | 20457 ft | 328 kts | 167° |
| 2026-05-07 02:37 | 55.85676 | 20.26646 | 20093 ft | 327 kts | 167° |
| 2026-05-07 02:37 | 55.83538 | 20.27996 | 19732 ft | 325 kts | 167° |
| 2026-05-07 02:38 | 55.81414 | 20.29353 | 19373 ft | 324 kts | 166° |
| 2026-05-07 02:38 | 55.79297 | 20.30713 | 19015 ft | 322 kts | 166° |
| 2026-05-07 02:38 | 55.77192 | 20.32057 | 18660 ft | 321 kts | 166° |
| 2026-05-07 02:38 | 55.75091 | 20.33391 | 18306 ft | 319 kts | 166° |
| 2026-05-07 02:39 | 55.73007 | 20.34710 | 17955 ft | 318 kts | 166° |
| 2026-05-07 02:39 | 55.70927 | 20.36024 | 17604 ft | 316 kts | 166° |
| 2026-05-07 02:39 | 55.68863 | 20.37347 | 17253 ft | 315 kts | 166° |
| 2026-05-07 02:39 | 55.66803 | 20.38657 | 16904 ft | 314 kts | 166° |
| 2026-05-07 02:40 | 55.64750 | 20.39951 | 16556 ft | 312 kts | 166° |
| 2026-05-07 02:40 | 55.62707 | 20.41233 | 16210 ft | 311 kts | 166° |
| 2026-05-07 02:40 | 55.60669 | 20.42507 | 15864 ft | 310 kts | 166° |
| 2026-05-07 02:40 | 55.58637 | 20.43774 | 15519 ft | 309 kts | 166° |
| 2026-05-07 02:41 | 55.56613 | 20.45034 | 15175 ft | 308 kts | 165° |
| 2026-05-07 02:41 | 55.54591 | 20.46291 | 14830 ft | 307 kts | 165° |
| 2026-05-07 02:41 | 55.52578 | 20.47541 | 14487 ft | 306 kts | 165° |
| 2026-05-07 02:41 | 55.50573 | 20.48785 | 14147 ft | 305 kts | 165° |
| 2026-05-07 02:42 | 55.48602 | 20.50007 | 13812 ft | 304 kts | 165° |
| 2026-05-07 02:42 | 55.46609 | 20.51242 | 13471 ft | 303 kts | 165° |
| 2026-05-07 02:42 | 55.44626 | 20.52469 | 13131 ft | 302 kts | 165° |
| 2026-05-07 02:42 | 55.42645 | 20.53695 | 12793 ft | 301 kts | 165° |
| 2026-05-07 02:43 | 55.40656 | 20.54800 | 12457 ft | 298 kts | 170° |
| 2026-05-07 02:43 | 55.38627 | 20.55427 | 12116 ft | 295 kts | 177° |
| 2026-05-07 02:43 | 55.36588 | 20.55672 | 11776 ft | 293 kts | 181° |
| 2026-05-07 02:43 | 55.34557 | 20.55792 | 11438 ft | 292 kts | 181° |
| 2026-05-07 02:44 | 55.32530 | 20.55965 | 11099 ft | 292 kts | 176° |
| 2026-05-07 02:44 | 55.30538 | 20.56699 | 10767 ft | 294 kts | 165° |
| 2026-05-07 02:44 | 55.28632 | 20.58015 | 10432 ft | 295 kts | 158° |
| 2026-05-07 02:44 | 55.26948 | 20.59482 | 10128 ft | 295 kts | 155° |
| 2026-05-07 02:45 | 55.25307 | 20.60963 | 9997 ft | 288 kts | 155° |
| 2026-05-07 02:45 | 55.23547 | 20.62495 | 9922 ft | 277 kts | 156° |
| 2026-05-07 02:45 | 55.21838 | 20.63955 | 9765 ft | 271 kts | 156° |
| 2026-05-07 02:45 | 55.20140 | 20.65361 | 9476 ft | 269 kts | 161° |
| 2026-05-07 02:46 | 55.18339 | 20.66090 | 9187 ft | 265 kts | 177° |
| 2026-05-07 02:46 | 55.16507 | 20.66125 | 8885 ft | 263 kts | 184° |
| 2026-05-07 02:46 | 55.14685 | 20.65862 | 8583 ft | 262 kts | 188° |
| 2026-05-07 02:46 | 55.12879 | 20.65491 | 8283 ft | 261 kts | 188° |
| 2026-05-07 02:47 | 55.11105 | 20.65141 | 7988 ft | 260 kts | 188° |
| 2026-05-07 02:47 | 55.09279 | 20.64800 | 7683 ft | 260 kts | 187° |
| 2026-05-07 02:47 | 55.07508 | 20.64478 | 7390 ft | 259 kts | 187° |
| 2026-05-07 02:47 | 55.05723 | 20.64158 | 7090 ft | 258 kts | 187° |
| 2026-05-07 02:48 | 55.03942 | 20.63840 | 6790 ft | 257 kts | 187° |
| 2026-05-07 02:48 | 55.02221 | 20.63140 | 6483 ft | 254 kts | 206° |
| 2026-05-07 02:48 | 55.00853 | 20.61263 | 6182 ft | 251 kts | 230° |
| 2026-05-07 02:48 | 54.99876 | 20.58724 | 5819 ft | 253 kts | 239° |
| 2026-05-07 02:49 | 54.99063 | 20.56012 | 5501 ft | 253 kts | 244° |
| 2026-05-07 02:49 | 54.98343 | 20.53227 | 5185 ft | 252 kts | 246° |
| 2026-05-07 02:49 | 54.97630 | 20.50434 | 4871 ft | 252 kts | 246° |
| 2026-05-07 02:49 | 54.96911 | 20.47641 | 4526 ft | 253 kts | 246° |
| 2026-05-07 02:50 | 54.96199 | 20.44872 | 4321 ft | 248 kts | 246° |
| 2026-05-07 02:50 | 54.95528 | 20.42174 | 4239 ft | 237 kts | 246° |
| 2026-05-07 02:50 | 54.94857 | 20.39619 | 4155 ft | 227 kts | 246° |
| 2026-05-07 02:50 | 54.94213 | 20.37179 | 4092 ft | 216 kts | 246° |
| 2026-05-07 02:51 | 54.93606 | 20.34874 | 4030 ft | 202 kts | 246° |
| 2026-05-07 02:51 | 54.93037 | 20.32708 | 3782 ft | 194 kts | 246° |
| 2026-05-07 02:51 | 54.92470 | 20.30556 | 3283 ft | 198 kts | 245° |
| 2026-05-07 02:51 | 54.91608 | 20.28668 | 2730 ft | 204 kts | 213° |
| 2026-05-07 02:52 | 54.90252 | 20.28208 | 2293 ft | 200 kts | 170° |
| 2026-05-07 02:52 | 54.89045 | 20.29105 | 2173 ft | 179 kts | 147° |
| 2026-05-07 02:52 | 54.88090 | 20.30434 | 2150 ft | 178 kts | 133° |
| 2026-05-07 02:52 | 54.87256 | 20.32036 | 2131 ft | 179 kts | 130° |
| 2026-05-07 02:53 | 54.86438 | 20.33654 | 2087 ft | 178 kts | 129° |
| 2026-05-07 02:53 | 54.85637 | 20.35258 | 2041 ft | 178 kts | 128° |
| 2026-05-07 02:53 | 54.84822 | 20.36892 | 1995 ft | 179 kts | 129° |
| 2026-05-07 02:53 | 54.84058 | 20.38585 | 1933 ft | 178 kts | 115° |
| 2026-05-07 02:54 | 54.83940 | 20.40639 | 1877 ft | 172 kts | 78° |
| 2026-05-07 02:54 | 54.84293 | 20.42598 | 1852 ft | 168 kts | 69° |
| 2026-05-07 02:54 | 54.84737 | 20.44465 | 1686 ft | 166 kts | 64° |
| 2026-05-07 02:54 | 54.85237 | 20.46262 | 1470 ft | 165 kts | 62° |
| 2026-05-07 02:55 | 54.85731 | 20.47990 | 1267 ft | 154 kts | 61° |
| 2026-05-07 02:55 | 54.86217 | 20.49583 | 1039 ft | 145 kts | 54° |
| 2026-05-07 02:55 | 54.86777 | 20.51004 | 784 ft | 140 kts | 53° |
| 2026-05-07 02:55 | 54.87245 | 20.52452 | 631 ft | 133 kts | 61° |
| 2026-05-07 02:56 | 54.87619 | 20.53924 | 559 ft | 134 kts | 63° |
| 2026-05-07 02:56 | 54.87995 | 20.55423 | 367 ft | 136 kts | 62° |
| 2026-05-07 02:56 | 54.88398 | 20.56918 | 158 ft | 137 kts | 62° |
| 2026-05-07 02:56 | 54.88778 | 20.58383 | 56 ft | 126 kts | 64° |
| 2026-05-07 02:57 | 54.89090 | 20.59594 | 51 ft | 78 kts | 64° |
| 2026-05-07 02:57 | 54.89226 | 20.60054 | 51 ft | 19 kts | 49° |
| 2026-05-07 02:57 | 54.89218 | 20.60090 | 51 ft | 5 kts | 213° |
| 2026-05-07 02:57 | 54.89196 | 20.60020 | 51 ft | 10 kts | 244° |
| 2026-05-07 02:58 | 54.89157 | 20.59871 | 51 ft | 17 kts | 246° |
| 2026-05-07 02:58 | 54.89103 | 20.59657 | 51 ft | 22 kts | 246° |
| 2026-05-07 02:58 | 54.89042 | 20.59419 | 51 ft | 21 kts | 246° |
| 2026-05-07 02:58 | 54.88981 | 20.59179 | 51 ft | 23 kts | 246° |
| 2026-05-07 02:59 | 54.88912 | 20.58918 | 51 ft | 25 kts | 246° |
| 2026-05-07 02:59 | 54.88857 | 20.58703 | 51 ft | 14 kts | 246° |
| 2026-05-07 02:59 | 54.88776 | 20.58649 | 51 ft | 15 kts | 156° |
| 2026-05-07 02:59 | 54.88670 | 20.58737 | 51 ft | 18 kts | 155° |
| 2026-05-07 03:00 | 54.88556 | 20.58827 | 51 ft | 16 kts | 158° |
| 2026-05-07 03:00 | 54.88501 | 20.58763 | 51 ft | 11 kts | 231° |
| 2026-05-07 03:00 | 54.88427 | 20.58730 | 51 ft | 11 kts | 185° |
| 2026-05-07 03:00 | 54.88406 | 20.58727 | 51 ft | 0 kts | 184° |